sensor_id;sensor_type;location;lat;lon;timestamp;pressure;altitude;pressure_sealevel;temperature;humidity
81905;BME280;71370;-33.792;151.032;2023-07-31T00:00:03;101741.10;;;17.60;37.13
81905;BME280;71370;-33.792;151.032;2023-07-31T00:01:10;101742.09;;;17.63;37.15
81905;BME280;71370;-33.792;151.032;2023-07-31T00:02:17;101747.14;;;17.66;37.00
81905;BME280;71370;-33.792;151.032;2023-07-31T00:03:24;101746.84;;;17.71;37.14
81905;BME280;71370;-33.792;151.032;2023-07-31T00:04:30;101745.47;;;17.75;37.15
81905;BME280;71370;-33.792;151.032;2023-07-31T00:05:37;101741.09;;;17.79;36.55
81905;BME280;71370;-33.792;151.032;2023-07-31T00:06:44;101739.77;;;17.82;36.43
81905;BME280;71370;-33.792;151.032;2023-07-31T00:07:51;101740.57;;;17.86;36.64
81905;BME280;71370;-33.792;151.032;2023-07-31T00:09:00;101736.90;;;17.91;36.43
81905;BME280;71370;-33.792;151.032;2023-07-31T00:10:07;101735.70;;;17.96;36.65
81905;BME280;71370;-33.792;151.032;2023-07-31T00:11:14;101738.75;;;18.01;36.27
81905;BME280;71370;-33.792;151.032;2023-07-31T00:12:21;101737.00;;;18.06;35.87
81905;BME280;71370;-33.792;151.032;2023-07-31T00:13:28;101741.86;;;18.10;35.73
81905;BME280;71370;-33.792;151.032;2023-07-31T00:14:35;101740.90;;;18.13;35.73
81905;BME280;71370;-33.792;151.032;2023-07-31T00:15:42;101744.90;;;18.16;35.52
81905;BME280;71370;-33.792;151.032;2023-07-31T00:16:49;101747.46;;;18.20;35.75
81905;BME280;71370;-33.792;151.032;2023-07-31T00:17:56;101743.11;;;18.23;35.44
81905;BME280;71370;-33.792;151.032;2023-07-31T00:19:03;101743.37;;;18.26;35.42
81905;BME280;71370;-33.792;151.032;2023-07-31T00:20:10;101742.70;;;18.30;35.63
81905;BME280;71370;-33.792;151.032;2023-07-31T00:21:17;101738.50;;;18.34;35.64
81905;BME280;71370;-33.792;151.032;2023-07-31T00:22:24;101737.16;;;18.37;35.91
81905;BME280;71370;-33.792;151.032;2023-07-31T00:23:31;101740.61;;;18.41;35.90
81905;BME280;71370;-33.792;151.032;2023-07-31T00:24:38;101741.08;;;18.43;35.41
81905;BME280;71370;-33.792;151.032;2023-07-31T00:25:44;101738.33;;;18.46;35.59
81905;BME280;71370;-33.792;151.032;2023-07-31T00:26:51;101736.63;;;18.48;35.77
81905;BME280;71370;-33.792;151.032;2023-07-31T00:27:58;101734.05;;;18.52;35.51
81905;BME280;71370;-33.792;151.032;2023-07-31T00:29:05;101728.41;;;18.56;35.86
81905;BME280;71370;-33.792;151.032;2023-07-31T00:30:12;101731.33;;;18.59;35.72
81905;BME280;71370;-33.792;151.032;2023-07-31T00:31:19;101732.29;;;18.63;35.69
81905;BME280;71370;-33.792;151.032;2023-07-31T00:32:26;101726.81;;;18.66;35.88
81905;BME280;71370;-33.792;151.032;2023-07-31T00:33:35;101729.87;;;18.72;36.00
81905;BME280;71370;-33.792;151.032;2023-07-31T00:34:42;101731.30;;;18.77;35.79
81905;BME280;71370;-33.792;151.032;2023-07-31T00:35:50;101731.55;;;18.81;35.05
81905;BME280;71370;-33.792;151.032;2023-07-31T00:36:56;101730.38;;;18.84;34.70
81905;BME280;71370;-33.792;151.032;2023-07-31T00:38:03;101731.71;;;18.87;34.17
81905;BME280;71370;-33.792;151.032;2023-07-31T00:39:10;101728.27;;;18.89;34.48
81905;BME280;71370;-33.792;151.032;2023-07-31T00:40:17;101727.30;;;18.92;34.36
81905;BME280;71370;-33.792;151.032;2023-07-31T00:41:24;101727.21;;;18.94;34.17
81905;BME280;71370;-33.792;151.032;2023-07-31T00:42:31;101726.64;;;18.96;33.82
81905;BME280;71370;-33.792;151.032;2023-07-31T00:43:38;101724.46;;;18.97;34.22
81905;BME280;71370;-33.792;151.032;2023-07-31T00:44:45;101728.67;;;18.99;33.98
81905;BME280;71370;-33.792;151.032;2023-07-31T00:45:52;101724.75;;;18.99;33.75
81905;BME280;71370;-33.792;151.032;2023-07-31T00:47:00;101723.50;;;18.99;33.90
81905;BME280;71370;-33.792;151.032;2023-07-31T00:48:07;101728.96;;;19.00;34.06
81905;BME280;71370;-33.792;151.032;2023-07-31T00:49:14;101724.80;;;19.03;34.30
81905;BME280;71370;-33.792;151.032;2023-07-31T00:50:24;101726.80;;;19.07;34.24
81905;BME280;71370;-33.792;151.032;2023-07-31T00:51:31;101724.56;;;19.10;34.11
81905;BME280;71370;-33.792;151.032;2023-07-31T00:52:38;101723.02;;;19.14;34.24
81905;BME280;71370;-33.792;151.032;2023-07-31T00:53:45;101718.58;;;19.18;34.23
81905;BME280;71370;-33.792;151.032;2023-07-31T00:54:53;101719.14;;;19.23;34.07
81905;BME280;71370;-33.792;151.032;2023-07-31T00:56:00;101713.48;;;19.26;33.50
81905;BME280;71370;-33.792;151.032;2023-07-31T00:57:07;101715.39;;;19.28;33.78
81905;BME280;71370;-33.792;151.032;2023-07-31T00:58:14;101712.98;;;19.31;34.40
81905;BME280;71370;-33.792;151.032;2023-07-31T00:59:21;101712.08;;;19.36;33.96
81905;BME280;71370;-33.792;151.032;2023-07-31T01:00:28;101712.83;;;19.40;33.24
81905;BME280;71370;-33.792;151.032;2023-07-31T01:01:35;101711.16;;;19.42;33.14
81905;BME280;71370;-33.792;151.032;2023-07-31T01:02:42;101712.88;;;19.44;33.37
81905;BME280;71370;-33.792;151.032;2023-07-31T01:03:52;101709.55;;;19.48;32.80
81905;BME280;71370;-33.792;151.032;2023-07-31T01:05:03;101710.49;;;19.51;32.90
81905;BME280;71370;-33.792;151.032;2023-07-31T01:07:47;101704.37;;;19.58;33.05
81905;BME280;71370;-33.792;151.032;2023-07-31T01:09:17;101702.69;;;19.60;33.13
81905;BME280;71370;-33.792;151.032;2023-07-31T01:10:41;101703.14;;;19.62;33.13
81905;BME280;71370;-33.792;151.032;2023-07-31T01:11:57;101693.77;;;19.65;33.11
81905;BME280;71370;-33.792;151.032;2023-07-31T01:13:07;101693.61;;;19.69;32.82
81905;BME280;71370;-33.792;151.032;2023-07-31T01:14:14;101688.86;;;19.73;32.63
81905;BME280;71370;-33.792;151.032;2023-07-31T01:15:21;101685.39;;;19.75;32.29
81905;BME280;71370;-33.792;151.032;2023-07-31T01:16:28;101685.80;;;19.78;32.71
81905;BME280;71370;-33.792;151.032;2023-07-31T01:17:35;101684.60;;;19.82;32.25
81905;BME280;71370;-33.792;151.032;2023-07-31T01:18:42;101685.39;;;19.85;32.26
81905;BME280;71370;-33.792;151.032;2023-07-31T01:19:50;101681.16;;;19.89;32.23
81905;BME280;71370;-33.792;151.032;2023-07-31T01:21:11;101679.39;;;19.93;31.87
81905;BME280;71370;-33.792;151.032;2023-07-31T01:22:49;101677.48;;;19.96;32.27
81905;BME280;71370;-33.792;151.032;2023-07-31T01:24:23;101670.21;;;20.00;31.64
81905;BME280;71370;-33.792;151.032;2023-07-31T01:25:47;101669.58;;;20.02;31.92
81905;BME280;71370;-33.792;151.032;2023-07-31T01:27:24;101668.23;;;20.04;31.87
81905;BME280;71370;-33.792;151.032;2023-07-31T01:29:07;101660.30;;;20.07;31.92
81905;BME280;71370;-33.792;151.032;2023-07-31T01:30:21;101664.55;;;20.12;31.38
81905;BME280;71370;-33.792;151.032;2023-07-31T01:31:32;101653.25;;;20.14;31.24
81905;BME280;71370;-33.792;151.032;2023-07-31T01:32:41;101652.70;;;20.13;31.19
81905;BME280;71370;-33.792;151.032;2023-07-31T01:33:50;101649.80;;;20.15;31.38
81905;BME280;71370;-33.792;151.032;2023-07-31T01:34:58;101645.06;;;20.17;31.28
81905;BME280;71370;-33.792;151.032;2023-07-31T01:36:06;101645.81;;;20.21;31.41
81905;BME280;71370;-33.792;151.032;2023-07-31T01:37:14;101643.89;;;20.25;31.34
81905;BME280;71370;-33.792;151.032;2023-07-31T01:38:21;101644.20;;;20.31;31.25
81905;BME280;71370;-33.792;151.032;2023-07-31T01:39:28;101638.09;;;20.36;30.93
81905;BME280;71370;-33.792;151.032;2023-07-31T01:40:35;101641.31;;;20.40;30.61
81905;BME280;71370;-33.792;151.032;2023-07-31T01:41:42;101638.92;;;20.42;30.48
81905;BME280;71370;-33.792;151.032;2023-07-31T01:42:49;101634.17;;;20.44;30.74
81905;BME280;71370;-33.792;151.032;2023-07-31T01:43:56;101632.98;;;20.47;30.69
81905;BME280;71370;-33.792;151.032;2023-07-31T01:45:04;101634.60;;;20.51;30.47
81905;BME280;71370;-33.792;151.032;2023-07-31T01:46:11;101631.35;;;20.52;30.50
81905;BME280;71370;-33.792;151.032;2023-07-31T01:47:18;101630.34;;;20.55;30.63
81905;BME280;71370;-33.792;151.032;2023-07-31T01:48:24;101628.44;;;20.58;30.78
81905;BME280;71370;-33.792;151.032;2023-07-31T01:49:31;101632.95;;;20.62;30.55
81905;BME280;71370;-33.792;151.032;2023-07-31T01:50:38;101626.87;;;20.62;30.38
81905;BME280;71370;-33.792;151.032;2023-07-31T01:51:45;101625.27;;;20.62;30.49
81905;BME280;71370;-33.792;151.032;2023-07-31T01:52:52;101625.17;;;20.64;30.35
81905;BME280;71370;-33.792;151.032;2023-07-31T01:53:59;101624.56;;;20.66;30.42
81905;BME280;71370;-33.792;151.032;2023-07-31T01:55:07;101626.97;;;20.69;30.00
81905;BME280;71370;-33.792;151.032;2023-07-31T01:56:14;101626.95;;;20.69;30.24
81905;BME280;71370;-33.792;151.032;2023-07-31T01:57:21;101624.92;;;20.70;30.28
81905;BME280;71370;-33.792;151.032;2023-07-31T01:58:28;101625.70;;;20.73;30.39
81905;BME280;71370;-33.792;151.032;2023-07-31T01:59:35;101623.92;;;20.77;30.46
81905;BME280;71370;-33.792;151.032;2023-07-31T02:00:42;101620.63;;;20.83;30.73
81905;BME280;71370;-33.792;151.032;2023-07-31T02:01:49;101619.52;;;20.88;29.54
81905;BME280;71370;-33.792;151.032;2023-07-31T02:02:55;101619.23;;;20.91;29.82
81905;BME280;71370;-33.792;151.032;2023-07-31T02:04:02;101615.75;;;20.92;29.36
81905;BME280;71370;-33.792;151.032;2023-07-31T02:05:11;101614.86;;;20.93;29.39
81905;BME280;71370;-33.792;151.032;2023-07-31T02:06:18;101605.39;;;20.92;29.69
81905;BME280;71370;-33.792;151.032;2023-07-31T02:07:24;101603.05;;;20.93;29.76
81905;BME280;71370;-33.792;151.032;2023-07-31T02:08:31;101604.23;;;20.94;29.82
81905;BME280;71370;-33.792;151.032;2023-07-31T02:09:38;101604.12;;;20.97;30.10
81905;BME280;71370;-33.792;151.032;2023-07-31T02:10:45;101597.45;;;21.03;30.00
81905;BME280;71370;-33.792;151.032;2023-07-31T02:11:52;101599.14;;;21.09;29.61
81905;BME280;71370;-33.792;151.032;2023-07-31T02:12:59;101596.42;;;21.14;29.52
81905;BME280;71370;-33.792;151.032;2023-07-31T02:14:06;101592.52;;;21.17;29.44
81905;BME280;71370;-33.792;151.032;2023-07-31T02:15:13;101594.91;;;21.20;29.78
81905;BME280;71370;-33.792;151.032;2023-07-31T02:16:20;101587.73;;;21.24;29.89
81905;BME280;71370;-33.792;151.032;2023-07-31T02:17:27;101589.45;;;21.30;29.81
81905;BME280;71370;-33.792;151.032;2023-07-31T02:18:34;101585.35;;;21.33;29.30
81905;BME280;71370;-33.792;151.032;2023-07-31T02:19:41;101583.84;;;21.35;28.83
81905;BME280;71370;-33.792;151.032;2023-07-31T02:20:52;101576.54;;;21.35;28.89
81905;BME280;71370;-33.792;151.032;2023-07-31T02:21:59;101569.39;;;21.35;28.94
81905;BME280;71370;-33.792;151.032;2023-07-31T02:23:06;101571.86;;;21.35;29.14
81905;BME280;71370;-33.792;151.032;2023-07-31T02:24:13;101565.84;;;21.38;29.54
81905;BME280;71370;-33.792;151.032;2023-07-31T02:25:20;101560.45;;;21.42;29.43
81905;BME280;71370;-33.792;151.032;2023-07-31T02:26:27;101560.03;;;21.48;29.42
81905;BME280;71370;-33.792;151.032;2023-07-31T02:27:34;101555.84;;;21.53;29.20
81905;BME280;71370;-33.792;151.032;2023-07-31T02:28:41;101553.10;;;21.59;29.41
81905;BME280;71370;-33.792;151.032;2023-07-31T02:29:49;101554.52;;;21.63;29.09
81905;BME280;71370;-33.792;151.032;2023-07-31T02:30:56;101550.36;;;21.64;28.90
81905;BME280;71370;-33.792;151.032;2023-07-31T02:32:03;101552.28;;;21.65;29.45
81905;BME280;71370;-33.792;151.032;2023-07-31T02:33:10;101551.06;;;21.68;29.25
81905;BME280;71370;-33.792;151.032;2023-07-31T02:34:17;101549.48;;;21.70;29.07
81905;BME280;71370;-33.792;151.032;2023-07-31T02:35:24;101547.21;;;21.73;29.00
81905;BME280;71370;-33.792;151.032;2023-07-31T02:36:31;101541.52;;;21.76;28.97
81905;BME280;71370;-33.792;151.032;2023-07-31T02:37:38;101539.41;;;21.80;28.82
81905;BME280;71370;-33.792;151.032;2023-07-31T02:38:45;101539.95;;;21.83;28.84
81905;BME280;71370;-33.792;151.032;2023-07-31T02:39:52;101535.16;;;21.86;28.53
81905;BME280;71370;-33.792;151.032;2023-07-31T02:40:59;101531.38;;;21.86;28.34
81905;BME280;71370;-33.792;151.032;2023-07-31T02:42:06;101531.78;;;21.86;28.40
81905;BME280;71370;-33.792;151.032;2023-07-31T02:43:13;101529.96;;;21.86;28.59
81905;BME280;71370;-33.792;151.032;2023-07-31T02:44:19;101526.93;;;21.86;28.91
81905;BME280;71370;-33.792;151.032;2023-07-31T02:45:27;101526.48;;;21.88;28.74
81905;BME280;71370;-33.792;151.032;2023-07-31T02:46:34;101529.52;;;21.88;28.63
81905;BME280;71370;-33.792;151.032;2023-07-31T02:47:41;101523.73;;;21.89;28.82
81905;BME280;71370;-33.792;151.032;2023-07-31T02:48:48;101522.19;;;21.91;28.47
81905;BME280;71370;-33.792;151.032;2023-07-31T02:49:54;101519.22;;;21.93;28.48
81905;BME280;71370;-33.792;151.032;2023-07-31T02:51:02;101516.75;;;21.96;28.79
81905;BME280;71370;-33.792;151.032;2023-07-31T02:52:09;101517.05;;;22.02;28.54
81905;BME280;71370;-33.792;151.032;2023-07-31T02:53:16;101519.58;;;22.05;28.70
81905;BME280;71370;-33.792;151.032;2023-07-31T02:54:22;101514.20;;;22.08;28.92
81905;BME280;71370;-33.792;151.032;2023-07-31T02:55:29;101516.34;;;22.12;28.45
81905;BME280;71370;-33.792;151.032;2023-07-31T02:56:36;101510.42;;;22.15;28.72
81905;BME280;71370;-33.792;151.032;2023-07-31T02:57:43;101513.86;;;22.19;28.58
81905;BME280;71370;-33.792;151.032;2023-07-31T02:58:50;101509.23;;;22.22;28.45
81905;BME280;71370;-33.792;151.032;2023-07-31T02:59:57;101509.79;;;22.25;28.19
81905;BME280;71370;-33.792;151.032;2023-07-31T03:01:04;101511.63;;;22.28;28.46
81905;BME280;71370;-33.792;151.032;2023-07-31T03:02:11;101515.88;;;22.33;28.27
81905;BME280;71370;-33.792;151.032;2023-07-31T03:03:19;101517.03;;;22.35;27.84
81905;BME280;71370;-33.792;151.032;2023-07-31T03:04:26;101510.20;;;22.35;28.16
81905;BME280;71370;-33.792;151.032;2023-07-31T03:05:33;101508.34;;;22.37;28.03
81905;BME280;71370;-33.792;151.032;2023-07-31T03:06:40;101505.59;;;22.38;28.04
81905;BME280;71370;-33.792;151.032;2023-07-31T03:07:46;101506.75;;;22.40;27.83
81905;BME280;71370;-33.792;151.032;2023-07-31T03:08:53;101505.16;;;22.40;27.87
81905;BME280;71370;-33.792;151.032;2023-07-31T03:10:00;101506.05;;;22.40;27.87
81905;BME280;71370;-33.792;151.032;2023-07-31T03:11:07;101504.10;;;22.39;27.93
81905;BME280;71370;-33.792;151.032;2023-07-31T03:12:14;101504.33;;;22.39;27.89
81905;BME280;71370;-33.792;151.032;2023-07-31T03:13:21;101503.17;;;22.40;27.58
81905;BME280;71370;-33.792;151.032;2023-07-31T03:14:28;101501.55;;;22.40;27.89
81905;BME280;71370;-33.792;151.032;2023-07-31T03:15:35;101499.19;;;22.41;27.51
81905;BME280;71370;-33.792;151.032;2023-07-31T03:16:42;101499.33;;;22.41;27.87
81905;BME280;71370;-33.792;151.032;2023-07-31T03:17:49;101498.59;;;22.41;28.12
81905;BME280;71370;-33.792;151.032;2023-07-31T03:18:56;101499.09;;;22.42;27.71
81905;BME280;71370;-33.792;151.032;2023-07-31T03:20:04;101493.43;;;22.41;27.74
81905;BME280;71370;-33.792;151.032;2023-07-31T03:21:12;101491.79;;;22.41;27.85
81905;BME280;71370;-33.792;151.032;2023-07-31T03:22:19;101489.86;;;22.44;27.90
81905;BME280;71370;-33.792;151.032;2023-07-31T03:23:26;101492.11;;;22.46;27.73
81905;BME280;71370;-33.792;151.032;2023-07-31T03:24:33;101485.62;;;22.46;27.59
81905;BME280;71370;-33.792;151.032;2023-07-31T03:25:54;101487.44;;;22.46;27.72
81905;BME280;71370;-33.792;151.032;2023-07-31T03:27:02;101487.72;;;22.48;27.89
81905;BME280;71370;-33.792;151.032;2023-07-31T03:28:09;101486.28;;;22.48;27.78
81905;BME280;71370;-33.792;151.032;2023-07-31T03:29:16;101481.77;;;22.48;28.06
81905;BME280;71370;-33.792;151.032;2023-07-31T03:30:23;101483.79;;;22.51;28.25
81905;BME280;71370;-33.792;151.032;2023-07-31T03:31:29;101477.20;;;22.53;27.98
81905;BME280;71370;-33.792;151.032;2023-07-31T03:32:36;101475.59;;;22.53;27.53
81905;BME280;71370;-33.792;151.032;2023-07-31T03:33:43;101479.04;;;22.52;27.86
81905;BME280;71370;-33.792;151.032;2023-07-31T03:34:50;101480.45;;;22.53;27.59
81905;BME280;71370;-33.792;151.032;2023-07-31T03:35:57;101477.40;;;22.53;27.36
81905;BME280;71370;-33.792;151.032;2023-07-31T03:37:04;101476.88;;;22.52;27.50
81905;BME280;71370;-33.792;151.032;2023-07-31T03:38:11;101472.16;;;22.53;27.15
81905;BME280;71370;-33.792;151.032;2023-07-31T03:39:18;101473.73;;;22.54;27.53
81905;BME280;71370;-33.792;151.032;2023-07-31T03:40:25;101473.48;;;22.56;27.94
81905;BME280;71370;-33.792;151.032;2023-07-31T03:41:32;101471.53;;;22.59;27.95
81905;BME280;71370;-33.792;151.032;2023-07-31T03:42:39;101470.55;;;22.61;27.68
81905;BME280;71370;-33.792;151.032;2023-07-31T03:43:50;101473.30;;;22.63;27.74
81905;BME280;71370;-33.792;151.032;2023-07-31T03:45:04;101469.17;;;22.63;27.33
81905;BME280;71370;-33.792;151.032;2023-07-31T03:46:11;101465.13;;;22.61;27.30
81905;BME280;71370;-33.792;151.032;2023-07-31T03:47:18;101464.16;;;22.59;27.33
81905;BME280;71370;-33.792;151.032;2023-07-31T03:48:25;101466.27;;;22.57;27.45
81905;BME280;71370;-33.792;151.032;2023-07-31T03:49:32;101467.91;;;22.57;27.28
81905;BME280;71370;-33.792;151.032;2023-07-31T03:50:39;101466.27;;;22.57;27.38
81905;BME280;71370;-33.792;151.032;2023-07-31T03:51:46;101464.42;;;22.58;27.45
81905;BME280;71370;-33.792;151.032;2023-07-31T03:52:53;101462.08;;;22.58;27.48
81905;BME280;71370;-33.792;151.032;2023-07-31T03:54:00;101462.27;;;22.58;27.56
81905;BME280;71370;-33.792;151.032;2023-07-31T03:55:07;101464.64;;;22.57;27.48
81905;BME280;71370;-33.792;151.032;2023-07-31T03:56:14;101459.56;;;22.55;27.30
81905;BME280;71370;-33.792;151.032;2023-07-31T03:57:21;101456.77;;;22.53;27.49
81905;BME280;71370;-33.792;151.032;2023-07-31T03:58:28;101456.25;;;22.52;27.58
81905;BME280;71370;-33.792;151.032;2023-07-31T03:59:35;101458.55;;;22.53;27.46
81905;BME280;71370;-33.792;151.032;2023-07-31T04:00:42;101457.41;;;22.54;27.56
81905;BME280;71370;-33.792;151.032;2023-07-31T04:01:49;101456.97;;;22.56;27.68
81905;BME280;71370;-33.792;151.032;2023-07-31T04:02:56;101454.16;;;22.59;27.10
81905;BME280;71370;-33.792;151.032;2023-07-31T04:04:03;101454.84;;;22.59;27.37
81905;BME280;71370;-33.792;151.032;2023-07-31T04:05:10;101455.92;;;22.59;27.28
81905;BME280;71370;-33.792;151.032;2023-07-31T04:06:17;101452.35;;;22.59;26.90
81905;BME280;71370;-33.792;151.032;2023-07-31T04:07:24;101451.59;;;22.60;27.33
81905;BME280;71370;-33.792;151.032;2023-07-31T04:08:31;101455.65;;;22.61;27.50
81905;BME280;71370;-33.792;151.032;2023-07-31T04:09:38;101455.06;;;22.62;27.54
81905;BME280;71370;-33.792;151.032;2023-07-31T04:10:45;101456.35;;;22.62;27.42
81905;BME280;71370;-33.792;151.032;2023-07-31T04:11:53;101453.90;;;22.60;27.06
81905;BME280;71370;-33.792;151.032;2023-07-31T04:13:00;101453.37;;;22.60;26.96
81905;BME280;71370;-33.792;151.032;2023-07-31T04:14:07;101456.96;;;22.60;27.38
81905;BME280;71370;-33.792;151.032;2023-07-31T04:15:14;101455.96;;;22.62;27.31
81905;BME280;71370;-33.792;151.032;2023-07-31T04:16:21;101452.96;;;22.65;27.00
81905;BME280;71370;-33.792;151.032;2023-07-31T04:17:28;101450.71;;;22.66;27.03
81905;BME280;71370;-33.792;151.032;2023-07-31T04:18:35;101452.46;;;22.67;27.29
81905;BME280;71370;-33.792;151.032;2023-07-31T04:19:42;101454.45;;;22.70;27.51
81905;BME280;71370;-33.792;151.032;2023-07-31T04:20:49;101449.75;;;22.71;27.62
81905;BME280;71370;-33.792;151.032;2023-07-31T04:21:56;101444.52;;;22.71;27.58
81905;BME280;71370;-33.792;151.032;2023-07-31T04:23:03;101444.45;;;22.73;27.41
81905;BME280;71370;-33.792;151.032;2023-07-31T04:24:10;101442.09;;;22.73;27.54
81905;BME280;71370;-33.792;151.032;2023-07-31T04:25:17;101443.44;;;22.75;27.29
81905;BME280;71370;-33.792;151.032;2023-07-31T04:26:24;101441.17;;;22.77;26.93
81905;BME280;71370;-33.792;151.032;2023-07-31T04:27:31;101440.42;;;22.78;26.98
81905;BME280;71370;-33.792;151.032;2023-07-31T04:28:38;101440.36;;;22.79;27.49
81905;BME280;71370;-33.792;151.032;2023-07-31T04:29:45;101440.27;;;22.81;27.29
81905;BME280;71370;-33.792;151.032;2023-07-31T04:30:53;101436.65;;;22.81;27.42
81905;BME280;71370;-33.792;151.032;2023-07-31T04:32:00;101433.55;;;22.82;27.68
81905;BME280;71370;-33.792;151.032;2023-07-31T04:33:07;101437.38;;;22.81;27.29
81905;BME280;71370;-33.792;151.032;2023-07-31T04:34:14;101431.68;;;22.80;27.39
81905;BME280;71370;-33.792;151.032;2023-07-31T04:35:21;101431.83;;;22.81;27.36
81905;BME280;71370;-33.792;151.032;2023-07-31T04:36:28;101431.98;;;22.81;27.16
81905;BME280;71370;-33.792;151.032;2023-07-31T04:37:35;101424.86;;;22.80;27.36
81905;BME280;71370;-33.792;151.032;2023-07-31T04:38:42;101425.81;;;22.79;27.41
81905;BME280;71370;-33.792;151.032;2023-07-31T04:39:49;101425.02;;;22.78;27.38
81905;BME280;71370;-33.792;151.032;2023-07-31T04:40:56;101421.11;;;22.77;27.49
81905;BME280;71370;-33.792;151.032;2023-07-31T04:42:03;101421.33;;;22.76;27.93
81905;BME280;71370;-33.792;151.032;2023-07-31T04:43:10;101416.29;;;22.76;27.68
81905;BME280;71370;-33.792;151.032;2023-07-31T04:44:17;101416.14;;;22.76;27.63
81905;BME280;71370;-33.792;151.032;2023-07-31T04:45:24;101419.26;;;22.74;27.37
81905;BME280;71370;-33.792;151.032;2023-07-31T04:46:31;101414.54;;;22.72;27.31
81905;BME280;71370;-33.792;151.032;2023-07-31T04:47:38;101414.88;;;22.69;27.15
81905;BME280;71370;-33.792;151.032;2023-07-31T04:48:45;101415.69;;;22.68;27.14
81905;BME280;71370;-33.792;151.032;2023-07-31T04:49:52;101412.80;;;22.65;26.71
81905;BME280;71370;-33.792;151.032;2023-07-31T04:50:59;101416.17;;;22.62;26.83
81905;BME280;71370;-33.792;151.032;2023-07-31T04:52:06;101416.36;;;22.58;26.98
81905;BME280;71370;-33.792;151.032;2023-07-31T04:53:12;101412.23;;;22.55;27.34
81905;BME280;71370;-33.792;151.032;2023-07-31T04:54:19;101415.60;;;22.52;27.52
81905;BME280;71370;-33.792;151.032;2023-07-31T04:55:26;101415.77;;;22.49;27.48
81905;BME280;71370;-33.792;151.032;2023-07-31T04:56:33;101416.67;;;22.45;27.45
81905;BME280;71370;-33.792;151.032;2023-07-31T04:57:40;101415.64;;;22.41;27.60
81905;BME280;71370;-33.792;151.032;2023-07-31T04:58:47;101413.80;;;22.39;27.69
81905;BME280;71370;-33.792;151.032;2023-07-31T04:59:54;101416.09;;;22.36;27.73
81905;BME280;71370;-33.792;151.032;2023-07-31T05:01:01;101418.57;;;22.33;27.52
81905;BME280;71370;-33.792;151.032;2023-07-31T05:02:08;101416.45;;;22.29;27.68
81905;BME280;71370;-33.792;151.032;2023-07-31T05:03:15;101414.85;;;22.25;27.39
81905;BME280;71370;-33.792;151.032;2023-07-31T05:04:22;101413.73;;;22.22;27.44
81905;BME280;71370;-33.792;151.032;2023-07-31T05:05:29;101416.05;;;22.19;27.36
81905;BME280;71370;-33.792;151.032;2023-07-31T05:06:36;101415.27;;;22.16;27.71
81905;BME280;71370;-33.792;151.032;2023-07-31T05:07:43;101414.91;;;22.13;27.93
81905;BME280;71370;-33.792;151.032;2023-07-31T05:08:50;101418.48;;;22.10;27.90
81905;BME280;71370;-33.792;151.032;2023-07-31T05:09:57;101417.09;;;22.05;27.57
81905;BME280;71370;-33.792;151.032;2023-07-31T05:11:04;101414.23;;;21.98;27.82
81905;BME280;71370;-33.792;151.032;2023-07-31T05:12:11;101412.06;;;21.92;27.82
81905;BME280;71370;-33.792;151.032;2023-07-31T05:13:18;101413.55;;;21.87;28.01
81905;BME280;71370;-33.792;151.032;2023-07-31T05:14:26;101414.70;;;21.82;28.07
81905;BME280;71370;-33.792;151.032;2023-07-31T05:15:33;101421.55;;;21.77;28.38
81905;BME280;71370;-33.792;151.032;2023-07-31T05:16:40;101422.10;;;21.73;28.41
81905;BME280;71370;-33.792;151.032;2023-07-31T05:17:46;101418.00;;;21.69;28.30
81905;BME280;71370;-33.792;151.032;2023-07-31T05:18:53;101420.90;;;21.65;28.09
81905;BME280;71370;-33.792;151.032;2023-07-31T05:20:00;101421.17;;;21.59;28.27
81905;BME280;71370;-33.792;151.032;2023-07-31T05:21:07;101420.33;;;21.54;28.13
81905;BME280;71370;-33.792;151.032;2023-07-31T05:22:14;101424.75;;;21.52;28.44
81905;BME280;71370;-33.792;151.032;2023-07-31T05:23:21;101425.93;;;21.50;28.11
81905;BME280;71370;-33.792;151.032;2023-07-31T05:24:28;101428.49;;;21.48;28.14
81905;BME280;71370;-33.792;151.032;2023-07-31T05:25:35;101426.95;;;21.47;28.35
81905;BME280;71370;-33.792;151.032;2023-07-31T05:26:42;101429.34;;;21.46;28.62
81905;BME280;71370;-33.792;151.032;2023-07-31T05:27:49;101431.73;;;21.44;28.71
81905;BME280;71370;-33.792;151.032;2023-07-31T05:28:56;101434.52;;;21.42;28.70
81905;BME280;71370;-33.792;151.032;2023-07-31T05:30:05;101429.11;;;21.38;28.71
81905;BME280;71370;-33.792;151.032;2023-07-31T05:31:12;101430.36;;;21.35;28.80
81905;BME280;71370;-33.792;151.032;2023-07-31T05:32:19;101428.55;;;21.31;28.71
81905;BME280;71370;-33.792;151.032;2023-07-31T05:33:26;101430.45;;;21.29;28.55
81905;BME280;71370;-33.792;151.032;2023-07-31T05:34:33;101431.98;;;21.27;28.70
81905;BME280;71370;-33.792;151.032;2023-07-31T05:35:40;101434.23;;;21.25;28.67
81905;BME280;71370;-33.792;151.032;2023-07-31T05:36:47;101436.84;;;21.23;28.79
81905;BME280;71370;-33.792;151.032;2023-07-31T05:37:54;101434.80;;;21.20;28.78
81905;BME280;71370;-33.792;151.032;2023-07-31T05:39:01;101431.88;;;21.17;28.93
81905;BME280;71370;-33.792;151.032;2023-07-31T05:40:12;101435.56;;;21.15;28.80
81905;BME280;71370;-33.792;151.032;2023-07-31T05:41:19;101436.58;;;21.13;28.98
81905;BME280;71370;-33.792;151.032;2023-07-31T05:42:26;101437.56;;;21.11;29.34